This is the latest recevied weather packets stored in our database for station/object W0VI. If no packets are shown the sender has not sent any weather packets the latest 10 day(s).
| Time | Temp. | Humidity | Pressure | Rain* | Wind** | Luminosity | Snow |
|---|---|---|---|---|---|---|---|
| 1777754930 | 18.89° C | 34% | 1012.3 hPa | 0 mm | - | 569 W/m² | - |
| 1777754628 | 18.89° C | 33% | 1012.5 hPa | 0 mm | - | 530 W/m² | - |
| 1777754325 | 18.89° C | 34% | 1012.8 hPa | 0 mm | - | 504 W/m² | - |
| 1777754023 | 18.33° C | 34% | 1012.8 hPa | 0 mm | - | 554 W/m² | - |
| 1777753718 | 17.78° C | 34% | 1012.9 hPa | 0 mm | - | 569 W/m² | - |
| 1777753416 | 18.33° C | 34% | 1013.1 hPa | 0 mm | - | 239 W/m² | - |
| 1777753113 | 18.89° C | 34% | 1013.2 hPa | 0 mm | - | 213 W/m² | - |
| 1777752809 | 17.78° C | 36% | 1013.4 hPa | 0 mm | - | 486 W/m² | - |
| 1777752506 | 17.78° C | 34% | 1013.5 hPa | 0 mm | - | 531 W/m² | - |
| 1777752201 | 17.78° C | 34% | 1013.6 hPa | 0 mm | - | 593 W/m² | - |
| 1777751900 | 17.78° C | 33% | 1013.6 hPa | 0 mm | - | 609 W/m² | - |
| 1777751596 | 17.78° C | 34% | 1013.8 hPa | 0 mm | - | 617 W/m² | - |
| 1777751293 | 17.78° C | 37% | 1013.8 hPa | 0 mm | - | 587 W/m² | - |
| 1777750990 | 17.78° C | 35% | 1013.9 hPa | 0 mm | - | 586 W/m² | - |
| 1777750685 | 17.22° C | 36% | 1014.3 hPa | 0 mm | - | 600 W/m² | - |
| 1777750383 | 17.22° C | 33% | 1014 hPa | 0 mm | - | 400 W/m² | - |
| 1777750078 | 17.22° C | 34% | 1014.4 hPa | 0 mm | - | 593 W/m² | - |
| 1777749776 | 17.22° C | 35% | 1014.1 hPa | 0 mm | - | 593 W/m² | - |
| 1777749472 | 16.67° C | 35% | 1014.4 hPa | 0 mm | - | 613 W/m² | - |
| 1777749170 | 16.67° C | 34% | 1014.5 hPa | 0 mm | - | 640 W/m² | - |
| 1777748867 | 16.67° C | 35% | 1014.6 hPa | 0 mm | - | 642 W/m² | - |
| 1777748564 | 16.67° C | 36% | 1014.7 hPa | 0 mm | - | 652 W/m² | - |
| 1777748259 | 16.67° C | 38% | 1014.9 hPa | 0 mm | - | 575 W/m² | - |
| 1777747956 | 16.67° C | 35% | 1014.9 hPa | 0 mm | - | 778 W/m² | - |
| 1777747652 | 16.67° C | 36% | 1015.1 hPa | 0 mm | - | 512 W/m² | - |
* Rain latest hour (hover to see other rain measurements)
** Current wind speed in m/s (hover to see current wind gust speed)